createdAt,value
2023-07-31T00:01:39.940Z,100700.47
2023-07-31T00:04:06.924Z,100711.97
2023-07-31T00:06:35.594Z,100705.66
2023-07-31T00:09:02.469Z,100703.34
2023-07-31T00:11:29.520Z,100701.75
2023-07-31T00:13:56.425Z,100697.78
2023-07-31T00:16:23.439Z,100702.56
2023-07-31T00:18:50.399Z,100700.25
2023-07-31T00:21:17.497Z,100697.50
2023-07-31T00:23:44.346Z,100696.31
2023-07-31T00:26:11.296Z,100688.72
2023-07-31T00:28:38.261Z,100695.91
2023-07-31T00:31:05.188Z,100685.19
2023-07-31T00:33:32.909Z,100694.34
2023-07-31T00:35:59.795Z,100683.25
2023-07-31T00:38:26.714Z,100688.44
2023-07-31T00:40:53.617Z,100679.31
2023-07-31T00:43:20.682Z,100690.81
2023-07-31T00:45:47.650Z,100682.09
2023-07-31T00:48:14.522Z,100676.53
2023-07-31T00:50:42.244Z,100678.88
2023-07-31T00:53:09.285Z,100671.66
2023-07-31T00:55:36.434Z,100670.53
2023-07-31T00:58:03.289Z,100674.56
2023-07-31T01:00:30.266Z,100672.56
2023-07-31T01:02:57.647Z,100674.91
2023-07-31T01:05:37.774Z,100675.28
2023-07-31T01:08:24.364Z,100672.47
2023-07-31T01:10:58.525Z,100670.03
2023-07-31T01:13:25.898Z,100667.63
2023-07-31T01:15:53.141Z,100665.19
2023-07-31T01:18:22.110Z,100670.81
2023-07-31T01:20:57.789Z,100663.25
2023-07-31T01:23:46.213Z,100665.28
2023-07-31T01:26:19.981Z,100659.28
2023-07-31T01:29:11.677Z,100659.69
2023-07-31T01:31:40.913Z,100661.22
2023-07-31T01:34:11.206Z,100658.84
2023-07-31T01:36:38.699Z,100663.63
2023-07-31T01:39:05.918Z,100657.59
2023-07-31T01:41:32.737Z,100652.41
2023-07-31T01:43:59.669Z,100651.66
2023-07-31T01:46:26.618Z,100646.09
2023-07-31T01:48:53.629Z,100648.09
2023-07-31T01:51:20.740Z,100641.72
2023-07-31T01:53:47.641Z,100637.34
2023-07-31T01:56:14.599Z,100635.38
2023-07-31T01:58:41.648Z,100633.38
2023-07-31T02:01:08.624Z,100631.75
2023-07-31T02:03:35.902Z,100619.44
2023-07-31T02:06:03.058Z,100626.22
2023-07-31T02:08:30.024Z,100615.88
2023-07-31T02:10:57.498Z,100622.63
2023-07-31T02:13:24.510Z,100618.25
2023-07-31T02:15:52.880Z,100619.06
2023-07-31T02:18:19.789Z,100619.53
2023-07-31T02:20:53.526Z,100618.69
2023-07-31T02:23:20.936Z,100616.03
2023-07-31T02:25:48.117Z,100600.97
2023-07-31T02:28:15.839Z,100609.66
2023-07-31T02:30:47.393Z,100616.88
2023-07-31T02:33:15.636Z,100604.09
2023-07-31T02:35:42.625Z,100604.09
2023-07-31T02:38:09.548Z,100598.16
2023-07-31T02:40:36.454Z,100596.94
2023-07-31T02:43:03.620Z,100592.19
2023-07-31T02:45:30.521Z,100580.31
2023-07-31T02:47:57.414Z,100591.47
2023-07-31T02:50:24.593Z,100583.13
2023-07-31T02:52:51.728Z,100578.75
2023-07-31T02:55:18.614Z,100582.75
2023-07-31T02:57:45.686Z,100580.72
2023-07-31T03:00:12.777Z,100588.31
2023-07-31T03:02:39.871Z,100586.72
2023-07-31T03:05:07.522Z,100586.72
2023-07-31T03:07:34.419Z,100584.34
2023-07-31T03:10:01.281Z,100579.59
2023-07-31T03:12:28.865Z,100585.94
2023-07-31T03:14:55.696Z,100583.59
2023-07-31T03:17:22.601Z,100578.41
2023-07-31T03:19:49.693Z,100589.16
2023-07-31T03:22:16.594Z,100587.94
2023-07-31T03:24:43.680Z,100583.19
2023-07-31T03:27:10.870Z,100580.88
2023-07-31T03:29:38.050Z,100578.16
2023-07-31T03:32:05.329Z,100568.25
2023-07-31T03:34:33.223Z,100570.59
2023-07-31T03:37:00.188Z,100565.41
2023-07-31T03:39:27.055Z,100567.47
2023-07-31T03:41:54.927Z,100567.84
2023-07-31T03:44:22.191Z,100565.03
2023-07-31T03:46:49.086Z,100572.97
2023-07-31T03:49:16.062Z,100566.97
2023-07-31T03:51:43.106Z,100566.13
2023-07-31T03:54:10.226Z,100558.13
2023-07-31T03:56:37.206Z,100559.72
2023-07-31T03:59:04.045Z,100550.53
2023-07-31T04:01:30.973Z,100545.75
2023-07-31T04:03:57.958Z,100537.41
2023-07-31T04:06:24.976Z,100539.00
2023-07-31T04:08:52.093Z,100536.59
2023-07-31T04:11:19.196Z,100546.91
2023-07-31T04:13:46.161Z,100542.91
2023-07-31T04:16:13.130Z,100529.34
2023-07-31T04:18:40.147Z,100527.72
2023-07-31T04:21:07.056Z,100535.66
2023-07-31T04:23:34.066Z,100521.69
2023-07-31T04:26:00.985Z,100526.88
2023-07-31T04:28:28.031Z,100533.22
2023-07-31T04:30:55.034Z,100522.84
2023-07-31T04:33:22.285Z,100525.25
2023-07-31T04:35:53.735Z,100530.75
2023-07-31T04:38:23.081Z,100527.97
2023-07-31T04:40:50.190Z,100530.75
2023-07-31T04:43:17.577Z,100524.78
2023-07-31T04:45:48.109Z,100529.19
2023-07-31T04:48:15.709Z,100514.06
2023-07-31T04:50:42.653Z,100516.81
2023-07-31T04:53:09.612Z,100524.34
2023-07-31T04:55:36.492Z,100519.13
2023-07-31T04:58:03.543Z,100526.63
2023-07-31T05:00:30.900Z,100519.84
2023-07-31T05:02:58.010Z,100514.25
2023-07-31T05:05:25.068Z,100512.22
2023-07-31T05:07:52.388Z,100504.16
2023-07-31T05:10:19.367Z,100505.72
2023-07-31T05:12:46.208Z,100513.28
2023-07-31T05:15:13.186Z,100493.28
2023-07-31T05:17:40.279Z,100500.53
2023-07-31T05:20:08.096Z,100499.41
2023-07-31T05:22:35.229Z,100493.00
2023-07-31T05:25:02.138Z,100494.53
2023-07-31T05:27:29.117Z,100493.72
2023-07-31T05:29:56.026Z,100490.59
2023-07-31T05:32:23.009Z,100489.00
2023-07-31T05:34:53.444Z,100478.66
2023-07-31T05:37:20.828Z,100482.16
2023-07-31T05:39:47.658Z,100482.97
2023-07-31T05:42:14.524Z,100478.53
2023-07-31T05:44:41.515Z,100477.75
2023-07-31T05:47:08.385Z,100477.31
2023-07-31T05:49:35.396Z,100477.66
2023-07-31T05:52:02.437Z,100476.88
2023-07-31T05:54:29.318Z,100467.28
2023-07-31T05:56:56.464Z,100468.03
2023-07-31T05:59:23.328Z,100471.53
2023-07-31T06:01:50.510Z,100471.94
2023-07-31T06:04:17.723Z,100468.75
2023-07-31T06:06:45.026Z,100471.09
2023-07-31T06:09:12.897Z,100465.47
2023-07-31T06:11:39.942Z,100465.47
2023-07-31T06:14:06.823Z,100465.44
2023-07-31T06:16:33.839Z,100469.34
2023-07-31T06:19:00.934Z,100462.53
2023-07-31T06:21:27.893Z,100461.28
2023-07-31T06:23:54.960Z,100463.19
2023-07-31T06:26:22.099Z,100455.28
2023-07-31T06:28:49.054Z,100460.75
2023-07-31T06:31:16.093Z,100456.28
2023-07-31T06:33:42.996Z,100454.88
2023-07-31T06:36:10.214Z,100456.31
2023-07-31T06:38:38.473Z,100445.81
2023-07-31T06:41:05.302Z,100444.03
2023-07-31T06:43:32.367Z,100439.75
2023-07-31T06:45:59.230Z,100443.38
2023-07-31T06:48:26.178Z,100438.28
2023-07-31T06:50:53.162Z,100433.69
2023-07-31T06:53:20.028Z,100427.28
2023-07-31T06:55:49.466Z,100420.09
2023-07-31T06:58:16.493Z,100428.91
2023-07-31T07:00:43.365Z,100419.75
2023-07-31T07:03:10.425Z,100424.19
2023-07-31T07:05:37.563Z,100408.88
2023-07-31T07:08:04.742Z,100419.50
2023-07-31T07:10:31.756Z,100414.09
2023-07-31T07:12:58.769Z,100410.75
2023-07-31T07:15:25.974Z,100399.72
2023-07-31T07:17:52.954Z,100400.44
2023-07-31T07:20:21.502Z,100404.81
2023-07-31T07:22:48.318Z,100400.50
2023-07-31T07:25:15.197Z,100391.50
2023-07-31T07:27:42.318Z,100396.84
2023-07-31T07:30:09.897Z,100390.03
2023-07-31T07:32:36.882Z,100389.69
2023-07-31T07:35:04.050Z,100391.09
2023-07-31T07:37:31.450Z,100382.59
2023-07-31T07:39:59.483Z,100379.50
2023-07-31T07:42:26.501Z,100389.38
2023-07-31T07:44:53.425Z,100384.88
2023-07-31T07:47:20.721Z,100385.50
2023-07-31T07:49:52.647Z,100381.63
2023-07-31T07:52:20.678Z,100378.63
2023-07-31T07:54:47.790Z,100388.41
2023-07-31T07:57:14.685Z,100385.94
2023-07-31T07:59:42.312Z,100383.25
2023-07-31T08:02:09.325Z,100377.81
2023-07-31T08:04:36.202Z,100369.69
2023-07-31T08:07:03.359Z,100362.03
2023-07-31T08:09:30.403Z,100365.91
2023-07-31T08:12:02.922Z,100371.81
2023-07-31T08:14:32.870Z,100348.41
2023-07-31T08:17:01.383Z,100353.31
2023-07-31T08:19:28.415Z,100360.59
2023-07-31T08:21:57.930Z,100368.56
2023-07-31T08:24:25.640Z,100362.16
2023-07-31T08:26:52.528Z,100360.84
2023-07-31T08:29:19.571Z,100358.38
2023-07-31T08:31:46.692Z,100359.44
2023-07-31T08:34:13.575Z,100357.31
2023-07-31T08:36:40.920Z,100350.53
2023-07-31T08:39:08.297Z,100345.59
2023-07-31T08:41:40.409Z,100346.09
2023-07-31T08:44:08.772Z,100342.88
2023-07-31T08:46:36.316Z,100347.66
2023-07-31T08:49:06.266Z,100343.75
2023-07-31T08:51:35.468Z,100347.63
2023-07-31T08:54:05.299Z,100340.84
2023-07-31T08:56:33.678Z,100345.50
2023-07-31T08:59:03.659Z,100342.59
2023-07-31T09:01:32.380Z,100343.31
2023-07-31T09:04:03.007Z,100331.31
2023-07-31T09:06:32.081Z,100344.06
2023-07-31T09:08:59.129Z,100339.28
2023-07-31T09:11:26.647Z,100340.19
2023-07-31T09:13:54.592Z,100341.31
2023-07-31T09:16:29.523Z,100334.44
2023-07-31T09:18:58.262Z,100336.38
2023-07-31T09:21:27.141Z,100338.69
2023-07-31T09:23:55.455Z,100350.44
2023-07-31T09:26:34.176Z,100339.56
2023-07-31T09:29:03.012Z,100338.59
2023-07-31T09:31:40.488Z,100324.13
2023-07-31T09:34:08.218Z,100322.88
2023-07-31T09:36:44.594Z,100328.38
2023-07-31T09:39:12.571Z,100324.25
2023-07-31T09:41:45.407Z,100340.00
2023-07-31T09:44:12.785Z,100339.09
2023-07-31T09:46:40.515Z,100327.34
2023-07-31T09:49:12.020Z,100324.47
2023-07-31T09:51:40.717Z,100332.16
2023-07-31T09:54:15.400Z,100329.53
2023-07-31T09:56:47.602Z,100325.44
2023-07-31T09:59:17.084Z,100317.16
2023-07-31T10:01:47.155Z,100320.44
2023-07-31T10:04:20.750Z,100324.56
2023-07-31T10:06:51.332Z,100324.88
2023-07-31T10:09:20.086Z,100318.31
2023-07-31T10:11:54.449Z,100323.69
2023-07-31T10:14:22.809Z,100322.38
2023-07-31T10:16:50.713Z,100316.88
2023-07-31T10:19:19.997Z,100322.81
2023-07-31T10:21:49.719Z,100320.91
2023-07-31T10:24:17.544Z,100313.94
2023-07-31T10:26:47.963Z,100310.59
2023-07-31T10:29:18.572Z,100311.94
2023-07-31T10:31:47.392Z,100313.56
2023-07-31T10:34:15.566Z,100310.88
2023-07-31T10:36:42.524Z,100310.38
2023-07-31T10:39:37.258Z,100299.81
2023-07-31T10:42:14.730Z,100308.13
2023-07-31T10:44:46.463Z,100303.97
2023-07-31T10:47:16.624Z,100308.88
2023-07-31T10:49:46.939Z,100312.00
2023-07-31T10:52:15.239Z,100320.16
2023-07-31T10:54:42.255Z,100315.25
2023-07-31T10:57:23.237Z,100321.75
2023-07-31T10:59:51.603Z,100329.78
2023-07-31T11:02:32.737Z,100337.47
2023-07-31T11:05:10.587Z,100331.66
2023-07-31T11:07:50.634Z,100318.56
2023-07-31T11:10:19.294Z,100327.91
2023-07-31T11:12:47.738Z,100324.53
2023-07-31T11:15:14.904Z,100327.88
2023-07-31T11:17:42.468Z,100325.84
2023-07-31T11:20:09.854Z,100313.41
2023-07-31T11:22:37.396Z,100318.78
2023-07-31T11:25:05.397Z,100323.38
2023-07-31T11:27:32.492Z,100324.72
2023-07-31T11:30:03.722Z,100324.94
2023-07-31T11:32:31.125Z,100319.31
2023-07-31T11:34:58.213Z,100315.84
2023-07-31T11:37:25.296Z,100309.28
2023-07-31T11:40:10.702Z,100305.81
2023-07-31T11:42:37.663Z,100307.50
2023-07-31T11:45:09.102Z,100313.91
2023-07-31T11:47:38.251Z,100302.69
2023-07-31T11:50:07.396Z,100305.38
2023-07-31T11:52:43.379Z,100313.81
2023-07-31T11:55:11.329Z,100317.03
2023-07-31T11:57:40.910Z,100328.53
2023-07-31T12:00:12.195Z,100315.03
2023-07-31T12:02:41.115Z,100312.63
2023-07-31T12:05:12.644Z,100318.00
2023-07-31T12:07:50.738Z,100306.59
2023-07-31T12:10:29.486Z,100311.97
2023-07-31T12:13:16.248Z,100311.44
2023-07-31T12:15:46.909Z,100306.97
2023-07-31T12:18:21.461Z,100312.78
2023-07-31T12:20:50.770Z,100318.22
2023-07-31T12:23:31.752Z,100322.66
2023-07-31T12:26:18.128Z,100326.72
2023-07-31T12:28:47.476Z,100319.00
2023-07-31T12:31:18.543Z,100324.38
2023-07-31T12:33:46.595Z,100317.72
2023-07-31T12:36:18.509Z,100309.00
2023-07-31T12:38:47.368Z,100305.50
2023-07-31T12:41:14.736Z,100301.69
2023-07-31T12:43:43.676Z,100291.47
2023-07-31T12:46:11.376Z,100300.09
2023-07-31T12:48:39.950Z,100301.31
2023-07-31T12:51:10.681Z,100296.75
2023-07-31T12:53:37.747Z,100297.19
2023-07-31T12:56:05.072Z,100295.66
2023-07-31T12:58:32.226Z,100301.50
2023-07-31T13:00:59.415Z,100299.66
2023-07-31T13:03:26.581Z,100304.81
2023-07-31T13:05:54.170Z,100278.31
2023-07-31T13:08:21.498Z,100273.94
2023-07-31T13:10:48.491Z,100280.66
2023-07-31T13:13:15.445Z,100276.28
2023-07-31T13:15:43.515Z,100288.75
2023-07-31T13:18:10.868Z,100298.41
2023-07-31T13:20:37.705Z,100298.53
2023-07-31T13:23:05.907Z,100290.94
2023-07-31T13:25:32.996Z,100283.56
2023-07-31T13:28:02.120Z,100295.97
2023-07-31T13:30:30.575Z,100306.59
2023-07-31T13:32:57.550Z,100301.28
2023-07-31T13:35:24.494Z,100306.47
2023-07-31T13:37:52.035Z,100303.03
2023-07-31T13:40:19.075Z,100313.16
2023-07-31T13:42:47.111Z,100313.44
2023-07-31T13:45:14.289Z,100318.09
2023-07-31T13:47:41.263Z,100311.78
2023-07-31T13:50:08.607Z,100308.16
2023-07-31T13:52:35.663Z,100308.09
2023-07-31T13:55:02.704Z,100296.66
2023-07-31T13:57:29.777Z,100291.59
2023-07-31T13:59:57.132Z,100293.22
2023-07-31T14:02:24.063Z,100274.22
2023-07-31T14:04:51.002Z,100276.25
2023-07-31T14:07:18.951Z,100267.63
2023-07-31T14:09:45.849Z,100266.91
2023-07-31T14:12:12.778Z,100268.50
2023-07-31T14:14:39.798Z,100270.66
2023-07-31T14:17:07.186Z,100270.00
2023-07-31T14:19:34.631Z,100269.44
2023-07-31T14:22:11.164Z,100256.31
2023-07-31T14:24:39.461Z,100268.44
2023-07-31T14:27:06.772Z,100270.44
2023-07-31T14:29:33.691Z,100266.63
2023-07-31T14:32:01.446Z,100271.81
2023-07-31T14:34:28.980Z,100282.69
2023-07-31T14:36:55.854Z,100274.41
2023-07-31T14:39:22.985Z,100285.31
2023-07-31T14:41:50.652Z,100274.88
2023-07-31T14:44:17.559Z,100277.09
2023-07-31T14:46:44.642Z,100270.34
2023-07-31T14:49:12.273Z,100268.88
2023-07-31T14:51:39.376Z,100272.22
2023-07-31T14:54:06.296Z,100273.00
2023-07-31T14:56:33.427Z,100272.53
2023-07-31T14:59:00.314Z,100270.63
2023-07-31T15:01:27.386Z,100264.47
2023-07-31T15:03:54.563Z,100256.38
2023-07-31T15:06:21.838Z,100252.84
2023-07-31T15:08:48.766Z,100249.88
2023-07-31T15:11:17.221Z,100237.66
2023-07-31T15:13:44.677Z,100221.81
2023-07-31T15:16:11.690Z,100226.31
2023-07-31T15:18:39.153Z,100217.56
2023-07-31T15:21:08.031Z,100210.41
2023-07-31T15:23:35.157Z,100205.97
2023-07-31T15:26:02.711Z,100209.00
2023-07-31T15:28:29.842Z,100190.16
2023-07-31T15:30:56.871Z,100182.38
2023-07-31T15:33:24.023Z,100185.06
2023-07-31T15:35:50.897Z,100179.31
2023-07-31T15:38:17.705Z,100177.31
2023-07-31T15:40:44.821Z,100189.09
2023-07-31T15:43:11.720Z,100194.34
2023-07-31T15:45:38.663Z,100194.06
2023-07-31T15:48:05.994Z,100173.00
2023-07-31T15:50:33.002Z,100158.88
2023-07-31T15:52:59.955Z,100163.34
2023-07-31T15:55:27.229Z,100163.94
2023-07-31T15:57:54.311Z,100165.47
2023-07-31T16:00:21.493Z,100152.38
2023-07-31T16:02:49.623Z,100155.78
2023-07-31T16:05:16.838Z,100152.47
2023-07-31T16:07:43.772Z,100141.94
2023-07-31T16:10:10.765Z,100148.22
2023-07-31T16:12:37.710Z,100145.44
2023-07-31T16:15:04.827Z,100143.16
2023-07-31T16:17:32.014Z,100139.72
2023-07-31T16:20:00.570Z,100132.75
2023-07-31T16:22:28.424Z,100135.31
2023-07-31T16:24:55.585Z,100136.78
2023-07-31T16:27:25.824Z,100137.44
2023-07-31T16:29:52.864Z,100127.78
2023-07-31T16:32:20.089Z,100127.44
2023-07-31T16:34:47.370Z,100116.00
2023-07-31T16:37:14.263Z,100113.41
2023-07-31T16:39:42.041Z,100116.75
2023-07-31T16:42:09.147Z,100122.69
2023-07-31T16:44:36.380Z,100120.34
2023-07-31T16:47:03.999Z,100107.09
2023-07-31T16:49:30.875Z,100115.84
2023-07-31T16:51:58.851Z,100112.16
2023-07-31T16:54:25.937Z,100099.03
2023-07-31T16:56:59.289Z,100095.91
2023-07-31T16:59:28.422Z,100098.91
2023-07-31T17:01:59.857Z,100094.66
2023-07-31T17:04:32.082Z,100096.28
2023-07-31T17:06:59.455Z,100085.47
2023-07-31T17:09:27.592Z,100075.94
2023-07-31T17:11:55.431Z,100048.88
2023-07-31T17:14:22.664Z,100055.00
2023-07-31T17:16:49.560Z,100057.16
2023-07-31T17:19:16.577Z,100047.50
2023-07-31T17:21:43.571Z,100045.91
2023-07-31T17:24:10.806Z,100048.91
2023-07-31T17:26:38.416Z,100046.66
2023-07-31T17:29:05.344Z,100051.53
2023-07-31T17:31:32.346Z,100054.88
2023-07-31T17:33:59.554Z,100047.91
2023-07-31T17:36:26.682Z,100039.06
2023-07-31T17:38:53.535Z,100042.41
2023-07-31T17:41:21.118Z,100039.72
2023-07-31T17:43:48.101Z,100041.72
2023-07-31T17:46:15.884Z,100041.97
2023-07-31T17:48:46.254Z,100039.63
2023-07-31T17:51:13.230Z,100029.47
2023-07-31T17:53:40.186Z,100022.34
2023-07-31T17:56:07.264Z,100026.63
2023-07-31T17:58:34.353Z,100018.25
2023-07-31T18:01:01.608Z,100020.44
2023-07-31T18:03:29.196Z,100015.34
2023-07-31T18:05:56.152Z,100012.34
2023-07-31T18:08:23.104Z,100014.59
2023-07-31T18:10:50.657Z,100011.97
2023-07-31T18:13:17.721Z,100004.84
2023-07-31T18:15:48.375Z,100002.81
2023-07-31T18:18:15.838Z,100001.00
2023-07-31T18:20:42.831Z,100011.94
2023-07-31T18:23:09.850Z,100012.94
2023-07-31T18:25:37.018Z,100006.31
2023-07-31T18:28:04.192Z,100004.28
2023-07-31T18:30:35.412Z,100005.19
2023-07-31T18:33:02.526Z,100011.56
2023-07-31T18:35:29.958Z,99987.19
2023-07-31T18:37:56.911Z,99980.34
2023-07-31T18:40:24.477Z,99974.41
2023-07-31T18:42:51.911Z,99976.97
2023-07-31T18:45:18.937Z,99982.56
2023-07-31T18:47:46.005Z,99987.03
2023-07-31T18:50:12.957Z,99975.47
2023-07-31T18:52:40.578Z,99977.41
2023-07-31T18:55:08.082Z,99975.56
2023-07-31T18:57:34.977Z,99969.88
2023-07-31T19:00:02.290Z,99951.41
2023-07-31T19:02:29.652Z,99966.59
2023-07-31T19:04:56.562Z,99957.78
2023-07-31T19:07:23.524Z,99949.94
2023-07-31T19:10:00.205Z,99947.16
2023-07-31T19:12:36.089Z,99945.13
2023-07-31T19:15:03.498Z,99945.81
2023-07-31T19:17:30.478Z,99930.81
2023-07-31T19:19:57.590Z,99927.59
2023-07-31T19:22:25.880Z,99926.72
2023-07-31T19:24:53.005Z,99931.59
2023-07-31T19:27:20.084Z,99931.94
2023-07-31T19:29:47.515Z,99929.78
2023-07-31T19:32:16.137Z,99925.84
2023-07-31T19:34:43.563Z,99922.66
2023-07-31T19:37:11.997Z,99923.88
2023-07-31T19:39:39.228Z,99927.81
2023-07-31T19:42:06.170Z,99934.03
2023-07-31T19:44:33.194Z,99927.06
2023-07-31T19:47:00.319Z,99920.75
2023-07-31T19:49:28.773Z,99920.63
2023-07-31T19:51:55.730Z,99914.63
2023-07-31T19:54:23.035Z,99917.84
2023-07-31T19:56:51.128Z,99918.78
2023-07-31T19:59:21.488Z,99924.53
2023-07-31T20:01:48.597Z,99919.31
2023-07-31T20:04:15.620Z,99914.31
2023-07-31T20:06:42.807Z,99912.13
2023-07-31T20:09:11.002Z,99915.41
2023-07-31T20:11:38.862Z,99910.81
2023-07-31T20:14:07.089Z,99908.50
2023-07-31T20:16:36.998Z,99905.44
2023-07-31T20:19:04.031Z,99907.44
2023-07-31T20:21:30.937Z,99894.44
2023-07-31T20:24:00.664Z,99893.66
2023-07-31T20:26:28.822Z,99896.41
2023-07-31T20:28:58.421Z,99892.09
2023-07-31T20:31:25.637Z,99896.59
2023-07-31T20:33:53.022Z,99895.81
2023-07-31T20:36:20.519Z,99884.34
2023-07-31T20:38:47.621Z,99892.09
2023-07-31T20:41:14.509Z,99885.50
2023-07-31T20:43:41.389Z,99888.78
2023-07-31T20:46:08.483Z,99878.00
2023-07-31T20:48:38.406Z,99864.50
2023-07-31T20:51:05.358Z,99863.22
2023-07-31T20:53:32.347Z,99857.00
2023-07-31T20:56:00.747Z,99849.69
2023-07-31T20:58:27.794Z,99847.16
2023-07-31T21:00:55.166Z,99860.09
2023-07-31T21:03:22.392Z,99861.84
2023-07-31T21:05:51.771Z,99863.94
2023-07-31T21:08:18.938Z,99854.84
2023-07-31T21:10:45.893Z,99852.78
2023-07-31T21:13:13.098Z,99852.84
2023-07-31T21:15:41.876Z,99839.78
2023-07-31T21:18:09.555Z,99839.91
2023-07-31T21:20:37.793Z,99831.69
2023-07-31T21:23:09.336Z,99825.69
2023-07-31T21:25:39.408Z,99815.75
2023-07-31T21:28:06.539Z,99806.78
2023-07-31T21:30:35.592Z,99808.28
2023-07-31T21:33:02.800Z,99801.13
2023-07-31T21:35:29.739Z,99799.19
2023-07-31T21:37:57.157Z,99793.69
2023-07-31T21:40:24.092Z,99799.00
2023-07-31T21:42:51.781Z,99794.66
2023-07-31T21:45:18.873Z,99790.66
2023-07-31T21:47:45.966Z,99791.06
2023-07-31T21:50:13.220Z,99788.66
2023-07-31T21:52:40.698Z,99793.09
2023-07-31T21:55:08.179Z,99792.31
2023-07-31T21:57:36.523Z,99793.78
2023-07-31T22:00:07.543Z,99790.38
2023-07-31T22:02:34.806Z,99781.94
2023-07-31T22:05:01.873Z,99793.47
2023-07-31T22:07:29.050Z,99785.34
2023-07-31T22:09:56.102Z,99786.19
2023-07-31T22:12:26.353Z,99782.53
2023-07-31T22:14:53.728Z,99778.97
2023-07-31T22:17:20.744Z,99771.91
2023-07-31T22:19:47.620Z,99769.25
2023-07-31T22:22:14.712Z,99765.03
2023-07-31T22:24:41.692Z,99757.59
2023-07-31T22:27:08.582Z,99752.22
2023-07-31T22:29:35.578Z,99755.09
2023-07-31T22:32:02.599Z,99756.66
2023-07-31T22:34:29.520Z,99751.16
2023-07-31T22:36:56.548Z,99740.19
2023-07-31T22:39:23.510Z,99735.75
2023-07-31T22:41:50.768Z,99738.53
2023-07-31T22:44:17.812Z,99737.75
2023-07-31T22:46:45.195Z,99737.41
2023-07-31T22:49:12.263Z,99734.97
2023-07-31T22:51:39.682Z,99733.84
2023-07-31T22:54:06.592Z,99734.78
2023-07-31T22:56:33.482Z,99730.06
2023-07-31T22:59:00.447Z,99722.03
2023-07-31T23:01:28.718Z,99722.63
2023-07-31T23:03:55.803Z,99728.78
2023-07-31T23:06:22.878Z,99728.41
2023-07-31T23:08:49.888Z,99729.91
2023-07-31T23:11:17.273Z,99726.06
2023-07-31T23:13:47.316Z,99720.06
2023-07-31T23:16:14.159Z,99724.69
2023-07-31T23:18:41.938Z,99725.19
2023-07-31T23:21:09.067Z,99713.09
2023-07-31T23:23:35.929Z,99721.81
2023-07-31T23:26:02.877Z,99709.53
2023-07-31T23:28:30.076Z,99709.63
2023-07-31T23:31:03.741Z,99708.47
2023-07-31T23:33:32.321Z,99708.03
2023-07-31T23:36:08.165Z,99713.69
2023-07-31T23:38:35.041Z,99710.03
2023-07-31T23:41:02.021Z,99708.47
2023-07-31T23:43:29.062Z,99718.50
2023-07-31T23:45:56.078Z,99713.34
2023-07-31T23:48:22.996Z,99715.00
2023-07-31T23:50:52.685Z,99711.28
2023-07-31T23:53:20.012Z,99712.00
2023-07-31T23:55:47.259Z,99705.81
2023-07-31T23:58:15.734Z,99708.06
